Weather at Speer Airport [CLOSED]

Public forecast

Using degrees Fahrenheit for public forecast. Weather courtesy of forecast.io.

Closest aviation weather report (METAR) to Speer Airport

Closest report is San Diego International Airport, 1.0 nm (1.9 km) SE.

2024/05/23 01:51 (retrieved 27 minutes ago)

KSAN 230151Z 23006KT 10SM BKN021 17/12 A2997 RMK AO2 SLP149 T01720117

Closest aviation forecast (TAF) to Speer Airport

Closest forecast is March Air Reserve Base, 68.1 nm (126.2 km) N.

2024/05/22 20:21 (retrieved 6 hours ago)

TAF TAF KRIV 222000Z 2220/2402 32009KT 9999 SKC 510005 QNH2988INS TEMPO 2221/2301 32012G20KT BECMG 2303/2304 VRB04KT 9999 SKC QNH2990INS BECMG 2308/2309 VRB04KT 9999 FEW006 QNH2991INS BECMG 2309/2310 VRB04KT 4800 BR OVC006 QNH2990INS BECMG 2315/2316 VRB04KT 9000 BR OVC008 QNH2994INS BECMG 2316/2317 VRB05KT 9999 NSW BKN010 QNH2994INS BECMG 2317/2318 VRB05KT 9999 SKC QNH2994INS BECMG 2319/2320 32012KT 9999 SKC QNH2994INS TX24/2222Z TN10/2313Z